Terminal Aerodrome Forecast
Issued by NWS Mt. Holly, NJ

Home | Current Version | Previous Version | Text Only | Print | Product List | Glossary On
Versions: 1 2 3 4 5 6 7 8 9 10 11 12 13 14 15
725
FTUS41 KPHI 062325
TAFRDG
TAF
KRDG 062325Z 0700/0724 20005KT P6SM BKN250
     FM070300 00000KT P6SM SCT250
     FM071400 VRB03KT P6SM SKC=

USA.gov is the U.S. government's official web portal to all federal, state and local government web resources and services.